Timeline UpdatesTrip UpdatesNews PostsPvt PostsTravel TipsAdmin PostsConv PostsFollowed PostsChat RequestsBlog PostsPNR Posts

Disclaimer
Search
 
 
Fri Apr 18, 2014 21:12:53 ISTHomeTrainsΣChainsAtlasPNRForumGalleryNewsFAQTripsMembersLoginFeedback
No Recent News for this Train
Other Trains in the News **new
Latest...
.
Mon Aug 26, 2013 (09:40AM)
⇐ Return Journey: Train# 11028

11027/Mumbai CST-Chennai Mail

Jul 01 2013 (12:30PM)
Change Departure Station:
Change Arrival Station:
Post a Train Travel TipPost a Train Travel Tip **new
Post a Comment/Question/Picture/VideoPost a Comment/Question/Picture/Video
Pantry/Catering
✓ Pantry Car Avbl
✓ Catering Avbl
RSA - Rake Sharing
11042 Mumbai Express
Rake/Coach Composition
Loco ;SLR ,UR ,S1, S2, S3, S4, S5, S6, S7,PC ,S8,S9,S10,A1,B1 ,RMS ,UR,LDS ,S11 (S11 From Daund Junction To Solapur)
Loco
CSTM-PUNE: KYN WCAM-2P / 3; PUNE-GTL: GY WDM-3A/3D; GTL-MAS: LGD...
Read more...
WAP4
News    PNR    Forum    Time-Table    Availability    Fare Chart    Map    Arr/Dep History    Trips    Gallery    ΣChains    X/O    Timeline    
Travel Time: 2h 0m    2 halts    Distance: 92 km    Avg Speed: 46 km/hr
Type: Mail/Express
Zone: CR/Central
Departs @ 01:25 (Avg 18m late)
Platform# 1
SMTWTFS
Karjat Junction/KJT 
Arrives @ 03:25 (Avg 2m late)
Platform# 4
SMTWTFS
Pune Junction/PUNE 

2 halts. 24 intermediate Stations between Karjat Junction and Pune Junction

Show ALL intermediate Stations  

#CodeStation NameX/OArrivesAvgDepartsAvgHaltPFDay#KmSpeedElevZoneAddress
1CSTMMumbai CST (18)  -23:45+3--1-99.96510mCRMumbai 400001, Maharashtra
2DRMumbai Dadar Central (8)  23:53+1023:55+112m51-91.3627mCRMumbai 400014, Maharashtra
3KYNKalyan Junction (8)  00:38+1300:40+172m52-46.96510mCRKalyan 421301, Maharashtra
4KJT»Karjat Junction (4)»X01:23+1501:25+182m120.03657mCRKarjat, Maharashtra
5LNLLonavala (3)02:13+502:15+72m2228.680623mCRLonavala 410401, Maharashtra
6KKKhadki (3)X  02:58+1103:00+112m1286.314562mCRPune 411003, Maharashtra
7PUNE•Pune Junction (6)•03:25+203:35+1310m4292.350556mCRPune 411001, Maharashtra
8DDDaund Junction (7)05:05-105:15+710m32167.972521mCRNew Daund Dist. Pune 413801, Maharashtra
9BGVNBhigwan (2)X  05:38+1005:40+162m12195.558509mCRDaund, Maharashtra
10JEURJeur (1)XO  06:28+3906:30+452m12241.554526mCRJeur, Maharashtra
11KEMKem (2)O  06:48+4606:50+492m12257.727548mCRKem, Maharashtra
12KWVKurduvadi Junction (4)XO  07:30+3407:32+382m22275.860516mCRKurduvadi Dist-Solapur, Maharashtra
13MAMadha (2)O  07:48+3907:50+412m22291.762481mCRSolapur, Maharashtra
14MOMohol (2)  08:19+4208:21+452m12321.537458mCRSolapur, Maharashtra
15SURSolapur (5)09:15+2509:25+3310m12354.864461mCRSolapur 413001, Maharashtra
16HGHotgi Junction (3)X  09:39+4009:41+412m22369.881473mCRHotgi 413215, Maharashtra
17AKORAkalkot Road (2)  09:56+4809:58+482m12390.167456mCRDist Solapur, Maharashtra
18DUDDudhani (2)X  10:23+5710:25+582m12418.066457mCRSolapur, Maharashtra
19GURGanagapur Road  10:46+5810:48+592m12441.040445mCRDist Gulbarga, Karnataka
20GRGulbarga (4)  11:28+4311:30+442m32467.457458mCRGulbarga 585101, Karnataka
21SDBShahabad (3)X  11:58+3912:00+392m22494.112403mCRShahabad, Karnataka
22WADIWadi Junction (4)  12:50+512:55+95m22504.263431mCRWadi, Karnataka
23NWNalwar (2)  13:08+1813:10+182m22517.969406mSCRGulbarga, Karnataka
24YGYadgir (3)  13:32+1913:34+192m12543.382369mSCRYadgir, Karnataka
25SADPSaidapur (3)  13:51+2313:53+232m12566.581377mSCRYadgir Dist., Karnataka
26KSNKrishna (2)  14:08+2714:10+312m12586.735352mSCRDist Mahabubnagar, Andhra Pradesh
27RCRaichur Junction (3)  14:53+1914:55+232m12611.8129406mSCRRaichur, Karnataka
28MTUMatmariX  15:03+3415:05+352m12629.129371mSCRRaichur, Karnataka
29MALMMantralayam Road (3)X  15:28+2515:30+332m12640.344335mSCRKurnool Tel: 08512-259830, Andhra Pradesh
30KOKosigi (2)X  15:48+3515:50+352m12653.446379mSCRKurnool Dist., Andhra Pradesh
31KGLKupgal (2)  16:08+3116:10+302m12667.118417mSCRKurnool Dist., Andhra Pradesh
32ADAdoni (4)  16:58+817:00+92m12681.571420mSCRAdoni Tel: 08512-252368, Andhra Pradesh
33NRRNagarur (2)  17:08+1417:10+132m12691.057427mSCRKurnool, Andhra Pradesh
34GTLGuntakal Junction (6)17:55+2118:15+2420m22733.569453mSCRGuntakal. Tel: 08552-227131/32, Andhra Pradesh
35GYGooty Junction (2)  18:40+3218:42+322m--2762.179370mSCRNH 7 Anantapur District, Andhra Pradesh
36RLORayala Cheruvu (2)  19:00+4119:02+412m--2785.757292mSCRRayalacheruvu, Andhra Pradesh
37TUTadipatri (3)19:28+4019:30+402m--2810.251243mSCRAnantapuram Dist, Andhra Pradesh
38KDPKondapuram (2)  20:03+3420:05+352m--2838.279214mSCRKadapa (YSR District), Andhra Pradesh
39MOOMuddanuru (3)  20:23+3820:25+372m--2861.875194mSCRKadapa (YSR District), Andhra Pradesh
40YAYerraguntla (2)  20:38+4120:40+412m--2878.151171mSCRKadapa / Cuddapah (YSR District), Andhra Pradesh
41KKMKamalapuram (2)  20:58+3921:00+392m--2893.543141mSCRKadapa (YSR District), Andhra Pradesh
42HXKadapa (3)  21:33+2921:35+302m12917.251146mSCRCuddapah, Andhra Pradesh
43NRENandalur  22:23+1822:25+182m--2957.735143mSCRRayalaseema Region, Andhra Pradesh
44RJPRazampeta (2)  22:43+1522:45+162m--2968.272144mSCRKadapa (YSR District), Andhra Pradesh
45KOUKoduru (2)  23:13+1523:15+152m--21001.829215mSCRKadapa (YSR District), Andhra Pradesh
46RURenigunta Junction (5)X  00:40+201:00+320m131042.761113mSCRChittoor District, Andhra Pradesh
47PUTPuttur (3)  01:23+1301:25+132m--31066.159149mSRPuttur, Andhra Pradesh
48TRTTiruttani (3)  01:58+802:00+82m331098.54384mSRTiruttani, Tamil Nadu
49AJJArakkonam Junction (8)  02:20+902:25+85m--31112.87091mSRArakkonam, Tamil Nadu
50TRLTiruvallur (6)  02:48+1202:50+122m--31139.86650mSRTiruvallur, Tamil Nadu
51PERPerambur (4)X  03:23+1003:25+92m--31176.077mSRChennai-600011 Phone: 044-25510359, Tamil Nadu
52MASChennai Central (12)  04:15+1-131181.5-9mSRChennai 600003, Tamil Nadu
Scroll to Top
Scroll to Bottom